Terminal Aerodrome Forecast
Issued by NWS Charleston, WV

Current Version | Previous Version | Graphics & Text | Print | Product List | Glossary On
Versions: 1 2 3 4 5 6 7 8 9 10 11 12 13 14 15 16 17 18 19 20 21 22 23 24 25 26 27 28 29 30 31
000
FTUS41 KRLX 191100
TAFEKN
TAF
KEKN 191139Z 1912/2012 00000KT 6SM BR BKN019 OVC050
     FM191400 27005KT P6SM BKN035
     FM191700 28009KT P6SM BKN040
     FM191900 28010G15KT P6SM SCT050
     FM200300 30006KT P6SM SCT050
     FM200500 30005KT 6SM BR SCT050
     FM200700 30004KT 5SM BR BKN003
     FM200900 29005KT 2SM BR BKN001=

USA.gov is the U.S. government's official web portal to all federal, state and local government web resources and services.